Time;durP1;ratioP1;P1;durP2;ratioP2;P2;SDS_P1;SDS_P2;PMS_P1;PMS_P2;Temp;Humidity;BMP_temperature;BMP_pressure;BME280_temperature;BME280_humidity;BME280_pressure;Samples;Min_cycle;Max_cycle;Signal;HPM_P1;HPM_P2
2021/11/01 00:00:08;;;;;;;15.70;4.63;;;;;;;9.35;100.00;99338.41;684326;28;1220;-51
2021/11/01 00:00:29;;;;;;;13.23;4.53;;;;;;;9.42;100.00;99341.75;681108;28;5033;-51
2021/11/01 00:00:56;;;;;;;13.02;5.10;;;;;;;9.40;100.00;99338.28;680346;28;1319;-49
2021/11/01 00:01:16;;;;;;;15.70;5.45;;;;;;;9.37;100.00;99334.88;684523;28;1087;-50
2021/11/01 00:01:37;;;;;;;16.17;5.53;;;;;;;9.34;100.00;99332.31;684121;28;1115;-53
2021/11/01 00:01:58;;;;;;;18.50;5.30;;;;;;;9.33;100.00;99332.34;680224;28;1117;-50
2021/11/01 00:02:18;;;;;;;17.40;5.10;;;;;;;9.31;100.00;99334.13;682450;28;3584;-50
2021/11/01 00:02:40;;;;;;;18.58;5.20;;;;;;;9.30;100.00;99335.88;683324;28;3770;-50
2021/11/01 00:03:01;;;;;;;21.23;4.95;;;;;;;9.28;100.00;99337.66;684498;28;1143;-49
2021/11/01 00:03:21;;;;;;;19.57;4.90;;;;;;;9.31;100.00;99339.34;683688;28;1367;-52
2021/11/01 00:03:42;;;;;;;13.75;5.30;;;;;;;9.28;100.00;99334.22;683311;28;4625;-49
2021/11/01 00:04:03;;;;;;;13.48;5.10;;;;;;;9.31;100.00;99341.97;681246;28;2676;-52
2021/11/01 00:04:24;;;;;;;14.38;5.63;;;;;;;9.29;100.00;99343.72;683359;28;1274;-48
2021/11/01 00:04:44;;;;;;;14.77;5.47;;;;;;;9.30;100.00;99332.41;682337;28;1294;-49
2021/11/01 00:05:06;;;;;;;17.10;5.13;;;;;;;9.29;100.00;99335.91;684384;28;1076;-51
2021/11/01 00:05:27;;;;;;;16.92;5.50;;;;;;;9.30;100.00;99332.41;682938;28;3959;-49
2021/11/01 00:05:48;;;;;;;16.33;5.18;;;;;;;9.29;100.00;99335.91;682862;28;1345;-49
2021/11/01 00:06:09;;;;;;;18.33;5.30;;;;;;;9.26;100.00;99325.53;684066;28;1469;-49
2021/11/01 00:06:30;;;;;;;16.80;5.20;;;;;;;9.24;100.00;99332.56;683818;28;4504;-48
2021/11/01 00:06:51;;;;;;;20.92;5.47;;;;;;;9.22;100.00;99331.72;683449;28;1218;-52
2021/11/01 00:07:13;;;;;;;20.55;5.30;;;;;;;9.16;100.00;99330.94;684179;28;1056;-50
2021/11/01 00:07:33;;;;;;;18.85;5.30;;;;;;;9.16;100.00;99335.31;686262;28;1445;-49
2021/11/01 00:07:53;;;;;;;14.80;5.50;;;;;;;9.17;100.00;99340.50;682740;28;1151;-51
2021/11/01 00:08:14;;;;;;;17.42;5.50;;;;;;;9.15;100.00;99338.81;683591;28;2037;-52
2021/11/01 00:08:37;;;;;;;18.23;5.33;;;;;;;9.15;100.00;99330.97;682567;28;3428;-51
2021/11/01 00:08:57;;;;;;;17.95;5.15;;;;;;;9.12;100.00;99339.72;683248;28;1181;-50
2021/11/01 00:09:18;;;;;;;20.10;5.35;;;;;;;9.08;100.00;99338.06;684009;28;1171;-50
2021/11/01 00:09:38;;;;;;;19.08;6.07;;;;;;;9.07;100.00;99333.75;683302;28;4587;-51
2021/11/01 00:09:59;;;;;;;19.10;6.13;;;;;;;9.06;100.00;99334.63;684297;28;1250;-49
2021/11/01 00:10:20;;;;;;;23.08;6.18;;;;;;;9.01;100.00;99331.25;684565;28;1238;-52
2021/11/01 00:10:41;;;;;;;20.25;5.68;;;;;;;8.96;100.00;99330.50;683384;28;1128;-49
2021/11/01 00:11:01;;;;;;;20.37;5.77;;;;;;;8.93;100.00;99327.94;684305;28;1310;-49
2021/11/01 00:11:21;;;;;;;22.37;6.07;;;;;;;8.93;100.00;99333.16;685986;28;3522;-50
2021/11/01 00:11:42;;;;;;;20.97;5.43;;;;;;;8.94;100.00;99332.28;684641;28;1221;-52
2021/11/01 00:12:03;;;;;;;19.13;5.28;;;;;;;8.94;100.00;99327.06;684783;28;1488;-49
2021/11/01 00:12:28;;;;;;;22.67;5.60;;;;;;;8.95;100.00;99326.19;683847;28;1282;-51
2021/11/01 00:12:49;;;;;;;24.00;5.50;;;;;;;8.94;100.00;99324.44;681595;28;4800;-49
2021/11/01 00:13:09;;;;;;;20.90;5.30;;;;;;;8.94;100.00;99329.66;684203;28;1091;-52
2021/11/01 00:13:31;;;;;;;17.73;4.80;;;;;;;8.91;100.00;99319.31;684682;28;1064;-49
2021/11/01 00:13:53;;;;;;;17.83;4.68;;;;;;;8.89;100.00;99327.16;683697;28;1011;-49
2021/11/01 00:14:13;;;;;;;16.35;4.70;;;;;;;8.91;100.00;99324.50;684370;28;3437;-51
2021/11/01 00:14:34;;;;;;;15.50;4.70;;;;;;;8.91;100.00;99324.50;684299;28;1278;-49
2021/11/01 00:14:54;;;;;;;16.87;5.30;;;;;;;8.89;100.00;99324.56;684411;28;1083;-49
2021/11/01 00:15:14;;;;;;;15.77;5.15;;;;;;;8.93;100.00;99323.59;683728;28;1138;-48
2021/11/01 00:15:35;;;;;;;14.57;4.80;;;;;;;8.96;100.00;99317.47;682873;28;4730;-49
2021/11/01 00:15:56;;;;;;;16.63;4.55;;;;;;;8.94;100.00;99314.88;681795;28;1211;-50
2021/11/01 00:16:17;;;;;;;17.60;4.68;;;;;;;8.94;100.00;99314.03;681809;28;1446;-50
2021/11/01 00:16:37;;;;;;;12.97;4.60;;;;;;;8.96;100.00;99317.47;683785;28;1285;-52
2021/11/01 00:16:57;;;;;;;16.87;4.90;;;;;;;8.91;100.00;99314.09;681379;28;1118;-52
2021/11/01 00:17:18;;;;;;;15.27;4.30;;;;;;;8.90;100.00;99318.41;680173;28;3387;-51
2021/11/01 00:17:38;;;;;;;11.18;4.10;;;;;;;8.92;100.00;99315.81;681384;28;1258;-49
2021/11/01 00:17:59;;;;;;;14.57;4.57;;;;;;;8.89;100.00;99305.44;683507;28;1337;-49
2021/11/01 00:18:19;;;;;;;13.13;4.50;;;;;;;8.86;100.00;99315.03;683995;28;1458;-50
2021/11/01 00:18:40;;;;;;;15.30;4.20;;;;;;;8.85;100.00;99315.91;682739;28;4612;-51
2021/11/01 00:19:00;;;;;;;12.93;4.05;;;;;;;8.93;100.00;99314.91;686234;28;1167;-48
2021/11/01 00:19:20;;;;;;;11.77;4.20;;;;;;;8.94;100.00;99311.41;685926;28;1244;-52
2021/11/01 00:19:41;;;;;;;11.73;4.00;;;;;;;8.90;100.00;99310.59;683148;28;1314;-49
2021/11/01 00:20:04;;;;;;;13.77;3.97;;;;;;;8.88;100.00;99316.75;684221;28;3243;-50
2021/11/01 00:20:25;;;;;;;12.73;3.78;;;;;;;8.91;100.00;99314.09;683938;28;3684;-48
2021/11/01 00:20:47;;;;;;;10.40;3.70;;;;;;;8.98;100.00;99315.69;683462;28;1306;-52
2021/11/01 00:21:09;;;;;;;10.80;3.85;;;;;;;8.96;100.00;99313.09;683570;28;1401;-49
2021/11/01 00:21:29;;;;;;;12.88;4.28;;;;;;;8.96;100.00;99314.88;683664;28;4621;-49
2021/11/01 00:21:50;;;;;;;13.80;4.00;;;;;;;8.96;100.00;99313.09;683200;28;1365;-49
2021/11/01 00:22:10;;;;;;;9.77;3.70;;;;;;;9.01;100.00;99316.50;682045;28;1406;-49
2021/11/01 00:22:32;;;;;;;10.23;3.43;;;;;;;8.98;100.00;99313.91;678557;28;1290;-50
2021/11/01 00:22:53;;;;;;;12.13;3.75;;;;;;;8.95;100.00;99314.00;677239;29;1169;-50
2021/11/01 00:23:13;;;;;;;11.88;3.80;;;;;;;8.92;100.00;99308.00;676735;28;3451;-48
2021/11/01 00:23:34;;;;;;;12.20;3.23;;;;;;;8.89;100.00;99311.53;675876;29;1047;-50
2021/11/01 00:23:55;;;;;;;10.35;3.47;;;;;;;8.90;100.00;99312.38;676076;29;1429;-49
2021/11/01 00:24:16;;;;;;;11.32;3.60;;;;;;;8.85;100.00;99312.47;679603;28;1148;-50
2021/11/01 00:24:36;;;;;;;11.40;3.42;;;;;;;8.83;100.00;99306.41;680666;28;4971;-53
2021/11/01 00:24:57;;;;;;;9.60;3.53;;;;;;;8.82;100.00;99310.78;681494;28;1212;-51
2021/11/01 00:25:18;;;;;;;11.60;3.70;;;;;;;8.81;100.00;99318.63;683857;28;1162;-51
2021/11/01 00:25:38;;;;;;;13.07;3.53;;;;;;;8.78;100.00;99309.13;683134;28;1132;-49
2021/11/01 00:25:59;;;;;;;11.88;3.38;;;;;;;8.78;100.00;99316.94;683729;28;3244;-52
2021/11/01 00:26:20;;;;;;;13.17;3.70;;;;;;;8.82;100.00;99315.97;681479;28;4215;-48
2021/11/01 00:26:41;;;;;;;10.70;3.50;;;;;;;8.86;100.00;99315.03;680967;28;996;-48
2021/11/01 00:27:01;;;;;;;11.27;3.50;;;;;;;8.86;100.00;99311.56;679386;28;1271;-49
2021/11/01 00:27:22;;;;;;;10.68;3.55;;;;;;;8.83;100.00;99311.63;681491;28;1290;-49
2021/11/01 00:27:42;;;;;;;12.80;3.37;;;;;;;8.84;100.00;99314.19;680124;28;4396;-48
2021/11/01 00:28:04;;;;;;;11.73;3.70;;;;;;;8.85;100.00;99320.28;682664;28;1271;-51
2021/11/01 00:28:25;;;;;;;12.13;3.58;;;;;;;8.86;100.00;99319.38;683788;28;1191;-51
2021/11/01 00:28:45;;;;;;;15.32;3.80;;;;;;;8.86;100.00;99321.97;681200;28;1176;-50
2021/11/01 00:29:06;;;;;;;12.80;3.30;;;;;;;8.82;100.00;99326.41;683176;28;3306;-51
2021/11/01 00:29:26;;;;;;;10.55;3.15;;;;;;;8.82;100.00;99318.59;683667;28;1950;-49
2021/11/01 00:29:47;;;;;;;13.03;3.60;;;;;;;8.82;100.00;99323.81;683111;28;1440;-49
2021/11/01 00:30:09;;;;;;;14.32;3.45;;;;;;;8.81;100.00;99324.69;683207;28;1412;-52
2021/11/01 00:30:30;;;;;;;11.10;3.80;;;;;;;8.80;100.00;99328.16;680798;28;4702;-50
2021/11/01 00:30:53;;;;;;;11.68;3.20;;;;;;;8.84;100.00;99319.41;679964;28;1321;-50
2021/11/01 00:31:15;;;;;;;9.65;3.35;;;;;;;8.85;100.00;99328.09;681700;28;1262;-50
2021/11/01 00:31:35;;;;;;;10.93;3.45;;;;;;;8.83;100.00;99329.84;681218;28;1160;-51
2021/11/01 00:31:55;;;;;;;9.00;3.58;;;;;;;8.84;100.00;99324.63;680491;28;3105;-51
2021/11/01 00:32:16;;;;;;;11.80;4.13;;;;;;;8.82;100.00;99323.81;681820;28;3436;-50
2021/11/01 00:32:37;;;;;;;12.73;4.30;;;;;;;8.84;100.00;99328.97;683078;28;1312;-48
2021/11/01 00:32:57;;;;;;;13.45;4.20;;;;;;;8.85;100.00;99330.72;684483;28;1032;-49
2021/11/01 00:33:17;;;;;;;12.00;4.45;;;;;;;8.84;100.00;99335.03;684058;28;1226;-48
2021/11/01 00:33:38;;;;;;;15.03;4.60;;;;;;;8.84;100.00;99329.81;682999;28;4437;-49
2021/11/01 00:33:59;;;;;;;13.40;4.47;;;;;;;8.84;100.00;99329.81;683042;28;1309;-50
2021/11/01 00:34:20;;;;;;;13.57;4.33;;;;;;;8.83;100.00;99330.75;684125;28;1151;-54
2021/11/01 00:34:41;;;;;;;14.98;4.25;;;;;;;8.85;100.00;99330.72;682965;28;1289;-51
2021/11/01 00:35:03;;;;;;;15.52;4.30;;;;;;;8.84;100.00;99329.81;683695;28;3183;-49
2021/11/01 00:35:28;;;;;;;11.60;4.28;;;;;;;8.91;100.00;99327.13;683616;28;3529;-48
2021/11/01 00:35:49;;;;;;;12.45;4.65;;;;;;;8.84;100.00;99327.22;682146;28;1119;-49
2021/11/01 00:36:10;;;;;;;13.55;5.15;;;;;;;8.82;100.00;99330.75;681656;28;1152;-50
2021/11/01 00:36:30;;;;;;;12.38;4.57;;;;;;;8.77;100.00;99332.59;682622;28;4491;-49
2021/11/01 00:36:53;;;;;;;15.63;4.80;;;;;;;8.74;100.00;99340.47;683836;28;1118;-52
2021/11/01 00:37:13;;;;;;;14.43;4.38;;;;;;;8.73;100.00;99330.94;684160;28;1099;-52
2021/11/01 00:37:34;;;;;;;13.02;4.07;;;;;;;8.73;100.00;99331.78;682072;28;1336;-49
2021/11/01 00:37:54;;;;;;;15.27;4.00;;;;;;;8.74;100.00;99333.50;681775;28;3245;-49
2021/11/01 00:38:16;;;;;;;15.90;3.75;;;;;;;8.72;100.00;99330.06;680929;28;2271;-50
2021/11/01 00:38:37;;;;;;;13.60;4.00;;;;;;;8.74;100.00;99330.06;680394;28;1240;-52
2021/11/01 00:38:57;;;;;;;11.37;3.87;;;;;;;8.76;100.00;99333.47;680369;28;1084;-48
2021/11/01 00:39:17;;;;;;;13.55;4.63;;;;;;;8.77;100.00;99327.38;678781;28;1178;-51
2021/11/01 00:39:38;;;;;;;14.27;4.67;;;;;;;8.80;100.00;99329.94;679570;28;4591;-49
2021/11/01 00:40:00;;;;;;;12.93;4.40;;;;;;;8.85;100.00;99333.31;682849;28;1424;-49
2021/11/01 00:40:20;;;;;;;16.55;4.85;;;;;;;8.83;100.00;99327.25;682433;28;1203;-49
2021/11/01 00:40:41;;;;;;;20.00;6.03;;;;;;;8.78;100.00;99329.97;683109;28;1204;-50
2021/11/01 00:41:02;;;;;;;24.45;7.15;;;;;;;8.78;100.00;99327.34;683578;28;3699;-49
2021/11/01 00:41:22;;;;;;;20.85;6.45;;;;;;;8.77;100.00;99324.78;683467;28;1387;-50
2021/11/01 00:41:43;;;;;;;20.90;5.38;;;;;;;8.78;100.00;99329.97;683167;28;3471;-50
2021/11/01 00:42:05;;;;;;;18.57;5.23;;;;;;;8.78;100.00;99319.53;684293;28;1230;-53
2021/11/01 00:42:27;;;;;;;16.77;4.90;;;;;;;8.79;100.00;99326.47;682964;28;1185;-50
2021/11/01 00:42:47;;;;;;;14.65;4.93;;;;;;;8.79;100.00;99321.25;683300;28;4833;-48
2021/11/01 00:43:08;;;;;;;16.73;5.30;;;;;;;8.78;100.00;99323.91;683925;28;1151;-49
2021/11/01 00:43:29;;;;;;;17.00;4.88;;;;;;;8.75;100.00;99319.59;683651;28;1289;-49
2021/11/01 00:43:49;;;;;;;14.20;4.20;;;;;;;8.77;100.00;99323.03;683813;28;1835;-48
2021/11/01 00:44:09;;;;;;;13.30;4.30;;;;;;;8.77;100.00;99322.19;683832;28;2270;-49
2021/11/01 00:44:31;;;;;;;16.47;4.97;;;;;;;8.75;100.00;99314.38;682277;28;1368;-49
2021/11/01 00:44:51;;;;;;;15.40;4.72;;;;;;;8.76;100.00;99317.84;682709;28;1590;-51
2021/11/01 00:45:12;;;;;;;13.82;4.95;;;;;;;8.78;100.00;99324.75;682310;28;1215;-51
2021/11/01 00:45:33;;;;;;;16.17;5.53;;;;;;;8.77;100.00;99320.41;683394;28;4499;-49
2021/11/01 00:45:53;;;;;;;17.07;5.40;;;;;;;8.78;100.00;99318.69;683286;28;1172;-49
2021/11/01 00:46:15;;;;;;;14.45;5.00;;;;;;;8.76;100.00;99315.25;680841;28;1439;-50
2021/11/01 00:46:36;;;;;;;17.52;4.95;;;;;;;8.74;100.00;99317.88;680845;28;1319;-49
2021/11/01 00:47:00;;;;;;;16.10;4.80;;;;;;;8.73;100.00;99321.38;680013;28;3364;-50
2021/11/01 00:47:23;;;;;;;14.70;4.43;;;;;;;8.71;100.00;99320.53;680908;28;1235;-50
2021/11/01 00:47:43;;;;;;;14.57;4.03;;;;;;;8.68;100.00;99317.97;679419;28;1409;-49
2021/11/01 00:48:04;;;;;;;14.50;4.13;;;;;;;8.67;100.00;99311.06;682599;28;1439;-48
2021/11/01 00:48:24;;;;;;;12.18;3.85;;;;;;;8.66;100.00;99317.16;682529;28;1124;-50
2021/11/01 00:48:44;;;;;;;13.10;4.20;;;;;;;8.62;100.00;99312.88;682328;28;5279;-51
2021/11/01 00:49:05;;;;;;;16.35;4.60;;;;;;;8.63;100.00;99310.25;683831;28;1298;-49
2021/11/01 00:49:27;;;;;;;11.73;4.07;;;;;;;8.66;100.00;99304.97;681479;28;1990;-50
2021/11/01 00:49:47;;;;;;;11.32;3.88;;;;;;;8.65;100.00;99308.50;680569;28;3506;-49
2021/11/01 00:50:08;;;;;;;13.60;3.75;;;;;;;8.64;100.00;99305.88;678359;29;1212;-49
2021/11/01 00:50:31;;;;;;;14.40;3.80;;;;;;;8.66;100.00;99311.94;678388;29;1462;-51
2021/11/01 00:50:51;;;;;;;11.85;3.60;;;;;;;8.66;100.00;99314.56;679403;28;1396;-49
2021/11/01 00:51:12;;;;;;;15.20;4.10;;;;;;;8.64;100.00;99309.38;680209;28;1150;-53
2021/11/01 00:51:39;;;;;;;12.00;4.00;;;;;;;8.66;100.00;99310.19;682143;28;5449;-49
2021/11/01 00:52:00;;;;;;;12.30;4.15;;;;;;;8.65;100.00;99307.63;683031;28;1183;-49
2021/11/01 00:52:26;;;;;;;15.05;4.07;;;;;;;8.65;100.00;99313.72;683889;28;1135;-48
2021/11/01 00:52:47;;;;;;;14.80;3.58;;;;;;;8.64;100.00;99311.97;682340;28;1853;-50
2021/11/01 00:53:07;;;;;;;15.30;3.40;;;;;;;8.67;100.00;99313.69;680633;28;4529;-50
2021/11/01 00:53:33;;;;;;;14.77;3.73;;;;;;;8.64;100.00;99311.97;681777;28;1362;-49
2021/11/01 00:53:54;;;;;;;17.67;5.10;;;;;;;8.63;100.00;99304.19;680864;28;1123;-51
2021/11/01 00:54:14;;;;;;;18.80;4.50;;;;;;;8.60;100.00;99309.44;680914;28;1199;-50
2021/11/01 00:54:36;;;;;;;16.33;4.03;;;;;;;8.57;100.00;99312.09;679959;28;4669;-51
2021/11/01 00:55:02;;;;;;;16.85;4.32;;;;;;;8.56;100.00;99308.66;682068;28;1139;-51
2021/11/01 00:55:34;;;;;;;14.93;5.07;;;;;;;8.59;100.00;99305.13;683631;28;1251;-49
2021/11/01 00:55:56;;;;;;;15.98;4.45;;;;;;;8.58;100.00;99306.03;683180;28;3650;-52
2021/11/01 00:56:17;;;;;;;16.92;4.13;;;;;;;8.57;100.00;99304.28;684645;28;1395;-48
2021/11/01 00:56:38;;;;;;;16.83;4.47;;;;;;;8.57;100.00;99304.28;683424;28;1415;-50
2021/11/01 00:56:58;;;;;;;17.73;5.00;;;;;;;8.56;100.00;99308.66;682965;28;1174;-50
2021/11/01 00:57:18;;;;;;;15.68;4.65;;;;;;;8.56;100.00;99306.06;684443;28;1155;-53
2021/11/01 00:57:39;;;;;;;16.73;4.97;;;;;;;8.56;100.00;99308.66;682261;28;4677;-51
2021/11/01 00:57:59;;;;;;;18.90;5.15;;;;;;;8.56;100.00;99307.81;683286;28;1385;-49
2021/11/01 00:58:23;;;;;;;17.53;4.67;;;;;;;8.54;100.00;99307.81;684221;28;1161;-49
2021/11/01 00:58:44;;;;;;;15.20;4.28;;;;;;;8.52;100.00;99307.84;683634;28;3199;-49
2021/11/01 00:59:04;;;;;;;19.15;4.53;;;;;;;8.51;100.00;99313.97;682874;28;2253;-49
2021/11/01 00:59:25;;;;;;;14.18;4.38;;;;;;;8.54;100.00;99309.56;683373;28;1357;-48
2021/11/01 00:59:45;;;;;;;13.67;4.47;;;;;;;8.57;100.00;99306.91;683598;28;1214;-49
2021/11/01 01:00:06;;;;;;;16.30;4.57;;;;;;;8.55;100.00;99313.91;683378;28;1178;-49
2021/11/01 01:00:29;;;;;;;17.33;4.65;;;;;;;8.51;100.00;99308.75;682986;28;4646;-51
2021/11/01 01:00:50;;;;;;;18.73;4.43;;;;;;;8.48;100.00;99315.75;683446;28;1026;-49
2021/11/01 01:01:15;;;;;;;17.10;4.90;;;;;;;8.47;100.00;99314.91;683577;28;1008;-50
2021/11/01 01:01:36;;;;;;;17.20;4.47;;;;;;;8.48;100.00;99311.38;682970;28;3156;-50
2021/11/01 01:01:56;;;;;;;16.60;5.03;;;;;;;8.51;100.00;99318.28;683805;28;2340;-50
2021/11/01 01:02:16;;;;;;;15.55;4.57;;;;;;;8.51;100.00;99313.97;684821;28;1242;-50
2021/11/01 01:02:37;;;;;;;16.27;4.53;;;;;;;8.52;100.00;99313.06;684003;28;1257;-52
2021/11/01 01:02:58;;;;;;;17.83;4.40;;;;;;;8.50;100.00;99308.75;683060;28;1203;-49
2021/11/01 01:03:21;;;;;;;18.25;4.55;;;;;;;8.50;100.00;99314.84;682950;28;1218;-51
2021/11/01 01:03:43;;;;;;;15.38;4.55;;;;;;;8.52;100.00;99320.00;683046;28;4788;-49
2021/11/01 01:04:04;;;;;;;17.67;4.63;;;;;;;8.54;100.00;99325.19;683084;28;1180;-51
2021/11/01 01:04:25;;;;;;;15.60;4.53;;;;;;;8.54;100.00;99320.84;684586;28;1222;-54
2021/11/01 01:04:45;;;;;;;14.77;4.47;;;;;;;8.51;100.00;99324.38;683401;28;3847;-50
2021/11/01 01:05:06;;;;;;;16.50;4.50;;;;;;;8.54;100.00;99320.84;684301;28;1214;-49
2021/11/01 01:05:26;;;;;;;15.60;4.47;;;;;;;8.52;100.00;99317.41;684464;28;1103;-50
2021/11/01 01:05:50;;;;;;;17.38;4.28;;;;;;;8.45;100.00;99321.03;683322;28;1238;-49
2021/11/01 01:06:12;;;;;;;12.77;4.10;;;;;;;8.45;100.00;99326.22;683505;28;1327;-51
2021/11/01 01:06:32;;;;;;;15.32;4.20;;;;;;;8.43;100.00;99322.75;683480;28;4370;-48
2021/11/01 01:06:53;;;;;;;11.68;3.97;;;;;;;8.41;100.00;99327.97;682812;28;1095;-49
2021/11/01 01:07:13;;;;;;;11.93;3.77;;;;;;;8.45;100.00;99323.63;681433;28;1095;-51
2021/11/01 01:07:33;;;;;;;11.00;3.60;;;;;;;8.43;100.00;99323.63;681366;28;1797;-50
2021/11/01 01:07:54;;;;;;;10.43;3.67;;;;;;;8.44;100.00;99327.91;680369;28;3639;-50
2021/11/01 01:08:17;;;;;;;9.33;3.50;;;;;;;8.43;100.00;99320.13;681869;28;1266;-50
2021/11/01 01:08:37;;;;;;;15.15;3.63;;;;;;;8.43;100.00;99326.22;680934;28;1199;-50
2021/11/01 01:08:58;;;;;;;12.87;3.50;;;;;;;8.43;100.00;99323.63;683700;28;1449;-48
2021/11/01 01:09:19;;;;;;;10.18;3.33;;;;;;;8.47;100.00;99324.44;687066;28;1342;-50
2021/11/01 01:09:39;;;;;;;9.10;3.37;;;;;;;8.48;100.00;99327.00;684956;28;4540;-52
2021/11/01 01:10:00;;;;;;;12.13;3.60;;;;;;;8.49;100.00;99326.13;686992;28;1143;-48
2021/11/01 01:10:20;;;;;;;9.43;3.47;;;;;;;8.50;100.00;99322.66;686781;28;1183;-48
2021/11/01 01:10:42;;;;;;;8.57;3.08;;;;;;;8.48;100.00;99328.78;686156;28;3919;-48
2021/11/01 01:11:02;;;;;;;10.05;3.10;;;;;;;8.45;100.00;99331.44;684749;28;1365;-50
2021/11/01 01:11:24;;;;;;;11.88;3.00;;;;;;;8.47;100.00;99322.72;685057;28;1114;-51
2021/11/01 01:11:44;;;;;;;8.13;2.90;;;;;;;8.49;100.00;99328.75;685217;28;1317;-50
2021/11/01 01:12:07;;;;;;;8.00;2.83;;;;;;;8.55;100.00;99324.31;686270;28;1193;-49
2021/11/01 01:12:27;;;;;;;10.95;3.08;;;;;;;8.55;100.00;99319.09;686204;28;4532;-48
2021/11/01 01:12:48;;;;;;;9.68;3.03;;;;;;;8.56;100.00;99328.66;683416;28;1363;-48
2021/11/01 01:13:09;;;;;;;8.47;2.70;;;;;;;8.61;100.00;99322.47;684797;28;938;-49
2021/11/01 01:13:35;;;;;;;12.00;2.77;;;;;;;8.60;100.00;99322.47;683948;28;3173;-52
2021/11/01 01:13:57;;;;;;;9.70;2.80;;;;;;;8.61;100.00;99327.69;682594;28;1124;-50
2021/11/01 01:14:25;;;;;;;8.95;2.78;;;;;;;8.64;100.00;99327.59;683988;28;1263;-48
2021/11/01 01:14:52;;;;;;;12.20;2.55;;;;;;;8.66;100.00;99330.19;683906;28;1285;-49
2021/11/01 01:15:19;;;;;;;11.57;2.75;;;;;;;8.63;100.00;99323.28;684340;28;1032;-48
2021/11/01 01:16:21;;;;;;;7.82;2.38;;;;;;;8.74;100.00;99325.69;686051;28;1350;-49
2021/11/01 01:16:45;;;;;;;8.95;2.35;;;;;;;8.68;100.00;99320.59;685538;28;3524;-49
2021/11/01 01:17:06;;;;;;;12.38;2.70;;;;;;;8.69;100.00;99320.59;685629;28;1293;-52
2021/11/01 01:17:26;;;;;;;8.63;2.50;;;;;;;8.71;100.00;99317.94;685484;28;1116;-48
2021/11/01 01:17:47;;;;;;;9.33;2.50;;;;;;;8.68;100.00;99320.59;683200;28;1063;-48
2021/11/01 01:18:14;;;;;;;11.60;2.53;;;;;;;8.63;100.00;99315.47;683427;28;1202;-50
2021/11/01 01:18:37;;;;;;;9.57;2.35;;;;;;;8.61;100.00;99321.59;683115;28;4392;-50
2021/11/01 01:18:59;;;;;;;9.30;2.55;;;;;;;8.60;100.00;99315.53;682930;28;1052;-48
2021/11/01 01:19:23;;;;;;;10.00;2.50;;;;;;;8.59;100.00;99325.97;683108;28;2978;-50
2021/11/01 01:19:50;;;;;;;11.85;2.42;;;;;;;8.58;100.00;99316.44;682532;28;3376;-50
2021/11/01 01:20:13;;;;;;;11.23;2.45;;;;;;;8.57;100.00;99322.53;683659;28;1458;-50
2021/11/01 01:20:34;;;;;;;10.88;2.50;;;;;;;8.56;100.00;99318.22;684624;28;1072;-52
2021/11/01 01:20:58;;;;;;;11.23;2.92;;;;;;;8.54;100.00;99314.78;682997;28;1036;-52
2021/11/01 01:22:21;;;;;;;10.80;2.38;;;;;;;8.52;100.00;99318.25;681169;28;5065;-51
2021/11/01 01:22:43;;;;;;;8.18;2.40;;;;;;;8.50;100.00;99320.03;680749;28;2170;-49
2021/11/01 01:23:04;;;;;;;9.70;2.40;;;;;;;8.54;100.00;99318.22;683821;28;1234;-50
2021/11/01 01:23:26;;;;;;;9.27;2.22;;;;;;;8.55;100.00;99319.09;683569;28;1414;-50
2021/11/01 01:23:46;;;;;;;10.15;2.65;;;;;;;8.61;100.00;99317.25;683774;28;1330;-52
2021/11/01 01:24:07;;;;;;;10.18;2.67;;;;;;;8.62;100.00;99318.94;683844;28;1356;-48
2021/11/01 01:24:28;;;;;;;12.77;2.77;;;;;;;8.66;100.00;99319.75;683439;28;4492;-48
2021/11/01 01:24:48;;;;;;;12.27;2.70;;;;;;;8.67;100.00;99321.50;682684;28;992;-50
2021/11/01 01:25:47;;;;;;;8.73;2.70;;;;;;;8.67;100.00;99316.28;682953;28;1147;-49
2021/11/01 01:26:09;;;;;;;11.10;2.78;;;;;;;8.65;100.00;99313.72;680040;28;1516;-53
2021/11/01 01:26:30;;;;;;;10.77;2.60;;;;;;;8.62;100.00;99308.53;681712;28;1146;-51
2021/11/01 01:26:50;;;;;;;10.73;2.55;;;;;;;8.63;100.00;99314.63;681044;28;1012;-52
2021/11/01 01:27:11;;;;;;;9.93;2.60;;;;;;;8.59;100.00;99313.81;680258;28;1564;-51
2021/11/01 01:27:31;;;;;;;11.65;2.38;;;;;;;8.57;100.00;99315.59;679552;28;4368;-48
2021/11/01 01:27:53;;;;;;;9.03;2.27;;;;;;;8.55;100.00;99309.53;680668;28;1121;-51
2021/11/01 01:28:14;;;;;;;9.65;2.40;;;;;;;8.55;100.00;99312.13;681543;28;3125;-49
2021/11/01 01:28:34;;;;;;;9.00;2.40;;;;;;;8.54;100.00;99315.63;680543;28;3491;-49
2021/11/01 01:28:56;;;;;;;9.93;2.40;;;;;;;8.52;100.00;99320.00;681185;28;1418;-49
2021/11/01 01:29:16;;;;;;;11.60;2.50;;;;;;;8.50;100.00;99317.44;681345;28;1132;-48
2021/11/01 01:29:37;;;;;;;9.90;2.30;;;;;;;8.48;100.00;99315.75;681017;28;1965;-49
2021/11/01 01:29:58;;;;;;;9.93;2.50;;;;;;;8.50;100.00;99314.84;683771;28;1198;-51
2021/11/01 01:30:21;;;;;;;11.20;2.33;;;;;;;8.52;100.00;99310.44;683422;28;1193;-50
2021/11/01 01:30:42;;;;;;;8.63;2.20;;;;;;;8.57;100.00;99309.50;683719;28;4429;-49
2021/11/01 01:31:05;;;;;;;9.80;2.20;;;;;;;8.55;100.00;99311.28;685138;28;1211;-51
2021/11/01 01:31:26;;;;;;;9.35;2.10;;;;;;;8.51;100.00;99315.69;684515;28;3212;-49
2021/11/01 01:31:47;;;;;;;12.75;2.38;;;;;;;8.47;100.00;99317.50;684447;28;4047;-52
2021/11/01 01:32:07;;;;;;;13.20;2.60;;;;;;;8.46;100.00;99304.47;685505;28;1144;-51
2021/11/01 01:32:27;;;;;;;8.80;2.30;;;;;;;8.45;100.00;99308.84;684752;28;1147;-51
2021/11/01 01:32:48;;;;;;;7.77;2.30;;;;;;;8.43;100.00;99302.78;684315;28;960;-51
2021/11/01 01:33:10;;;;;;;10.48;2.30;;;;;;;8.42;100.00;99301.06;685506;28;1115;-49
2021/11/01 01:33:30;;;;;;;10.02;2.08;;;;;;;8.40;100.00;99299.38;684817;28;4420;-49
2021/11/01 01:33:53;;;;;;;10.07;2.43;;;;;;;8.40;100.00;99297.59;684446;28;1126;-49
2021/11/01 01:34:13;;;;;;;8.73;2.28;;;;;;;8.40;100.00;99296.75;684895;28;3137;-51
2021/11/01 01:34:33;;;;;;;9.20;2.20;;;;;;;8.39;100.00;99301.13;684812;28;2277;-50
2021/11/01 01:34:54;;;;;;;9.05;2.25;;;;;;;8.39;100.00;99290.72;683690;28;1374;-51
2021/11/01 01:35:15;;;;;;;8.83;2.33;;;;;;;8.40;100.00;99305.41;683938;28;1330;-50
2021/11/01 01:35:40;;;;;;;10.50;2.50;;;;;;;8.43;100.00;99300.19;684887;28;1210;-50
2021/11/01 01:36:00;;;;;;;9.15;2.55;;;;;;;8.43;100.00;99297.56;685400;28;1096;-49
2021/11/01 01:36:21;;;;;;;9.80;2.30;;;;;;;8.41;100.00;99296.72;685618;28;1246;-50
2021/11/01 01:36:41;;;;;;;8.73;2.30;;;;;;;8.41;100.00;99293.28;683636;28;4604;-49
2021/11/01 01:37:02;;;;;;;10.90;2.47;;;;;;;8.39;100.00;99295.91;684791;28;1268;-51
2021/11/01 01:37:22;;;;;;;10.38;2.47;;;;;;;8.40;100.00;99295.00;684348;28;3557;-51
2021/11/01 01:37:44;;;;;;;13.33;2.60;;;;;;;8.40;100.00;99292.41;684237;28;1236;-51
2021/11/01 01:38:04;;;;;;;8.65;2.60;;;;;;;8.38;100.00;99295.91;684248;28;1345;-49
2021/11/01 01:38:26;;;;;;;8.15;2.40;;;;;;;8.38;100.00;99294.19;685228;28;1153;-51
2021/11/01 01:38:46;;;;;;;7.47;2.10;;;;;;;8.37;100.00;99300.28;684270;28;1184;-49
2021/11/01 01:39:07;;;;;;;8.40;2.13;;;;;;;8.37;100.00;99297.66;684821;28;1337;-50
2021/11/01 01:39:27;;;;;;;13.20;2.47;;;;;;;8.35;100.00;99291.66;684918;28;4449;-49
2021/11/01 01:39:48;;;;;;;13.77;2.47;;;;;;;8.33;100.00;99293.41;684853;28;1404;-50
2021/11/01 01:40:10;;;;;;;11.46;2.46;;;;;;;8.34;100.00;99295.13;684205;28;3187;-49
2021/11/01 01:40:31;;;;;;;9.10;2.13;;;;;;;8.34;100.00;99293.38;684273;28;5576;-51
2021/11/01 01:40:53;;;;;;;9.90;2.37;;;;;;;8.38;100.00;99296.78;684508;28;1143;-50
2021/11/01 01:41:20;;;;;;;10.38;2.33;;;;;;;8.39;100.00;99295.03;684101;28;1210;-49
2021/11/01 01:41:45;;;;;;;10.65;2.30;;;;;;;8.40;100.00;99295.00;684259;28;3755;-50
2021/11/01 01:42:06;;;;;;;8.55;2.60;;;;;;;8.46;100.00;99292.34;685596;28;1097;-49
2021/11/01 01:42:27;;;;;;;7.85;2.10;;;;;;;8.51;100.00;99293.13;682548;28;4589;-49
2021/11/01 01:42:48;;;;;;;9.00;2.27;;;;;;;8.56;100.00;99292.19;683599;28;1298;-50
2021/11/01 01:43:08;;;;;;;8.57;2.47;;;;;;;8.52;100.00;99289.59;683599;28;2039;-50
2021/11/01 01:43:29;;;;;;;8.07;2.13;;;;;;;8.57;100.00;99293.88;683046;28;3666;-48
2021/11/01 01:43:53;;;;;;;9.43;2.33;;;;;;;8.60;100.00;99294.69;684450;28;1102;-50
2021/11/01 01:44:14;;;;;;;7.75;2.33;;;;;;;8.56;100.00;99302.59;683871;28;1039;-50